sensor_id;sensor_type;location;lat;lon;timestamp;pressure;altitude;pressure_sealevel;temperature;humidity
60417;BME280;46263;44.726;10.396;2024-03-25T00:00:12;99703.78;;;13.33;50.28
60417;BME280;46263;44.726;10.396;2024-03-25T00:02:39;99712.63;;;13.44;50.45
60417;BME280;46263;44.726;10.396;2024-03-25T00:05:05;99716.56;;;13.49;50.19
60417;BME280;46263;44.726;10.396;2024-03-25T00:07:32;99710.53;;;13.30;50.51
60417;BME280;46263;44.726;10.396;2024-03-25T00:09:58;99706.59;;;13.33;50.74
60417;BME280;46263;44.726;10.396;2024-03-25T00:12:25;99711.44;;;13.25;50.69
60417;BME280;46263;44.726;10.396;2024-03-25T00:14:51;99715.22;;;13.27;50.55
60417;BME280;46263;44.726;10.396;2024-03-25T00:17:16;99708.44;;;13.15;51.05
60417;BME280;46263;44.726;10.396;2024-03-25T00:19:42;99709.91;;;13.09;51.04
60417;BME280;46263;44.726;10.396;2024-03-25T00:22:07;99705.00;;;13.02;50.93
60417;BME280;46263;44.726;10.396;2024-03-25T00:24:33;99706.91;;;13.07;50.67
60417;BME280;46263;44.726;10.396;2024-03-25T00:26:58;99709.31;;;13.03;50.55
60417;BME280;46263;44.726;10.396;2024-03-25T00:29:24;99702.78;;;13.00;50.79
60417;BME280;46263;44.726;10.396;2024-03-25T00:31:49;99701.69;;;13.03;50.41
60417;BME280;46263;44.726;10.396;2024-03-25T00:34:14;99705.22;;;13.04;50.55
60417;BME280;46263;44.726;10.396;2024-03-25T00:36:40;99714.97;;;13.10;49.68
60417;BME280;46263;44.726;10.396;2024-03-25T00:39:06;99708.44;;;13.08;50.55
60417;BME280;46263;44.726;10.396;2024-03-25T00:41:32;99711.56;;;12.97;50.31
60417;BME280;46263;44.726;10.396;2024-03-25T00:43:58;99706.69;;;12.97;49.78
60417;BME280;46263;44.726;10.396;2024-03-25T00:46:23;99709.69;;;12.99;49.55
60417;BME280;46263;44.726;10.396;2024-03-25T00:48:49;99705.94;;;12.97;49.47
60417;BME280;46263;44.726;10.396;2024-03-25T00:51:14;99714.22;;;13.10;50.21
60417;BME280;46263;44.726;10.396;2024-03-25T00:53:40;99715.19;;;13.20;48.43
60417;BME280;46263;44.726;10.396;2024-03-25T00:56:05;99717.06;;;13.25;49.57
60417;BME280;46263;44.726;10.396;2024-03-25T00:58:31;99713.66;;;13.11;49.10
60417;BME280;46263;44.726;10.396;2024-03-25T01:00:56;99716.47;;;13.19;48.47
60417;BME280;46263;44.726;10.396;2024-03-25T01:03:22;99724.19;;;13.33;49.22
60417;BME280;46263;44.726;10.396;2024-03-25T01:05:47;99724.53;;;13.15;49.74
60417;BME280;46263;44.726;10.396;2024-03-25T01:08:13;99721.91;;;13.17;49.83
60417;BME280;46263;44.726;10.396;2024-03-25T01:10:39;99737.47;;;13.33;50.30
60417;BME280;46263;44.726;10.396;2024-03-25T01:13:05;99733.56;;;13.36;48.22
60417;BME280;46263;44.726;10.396;2024-03-25T01:15:30;99730.38;;;13.32;49.69
60417;BME280;46263;44.726;10.396;2024-03-25T01:17:56;99728.28;;;13.25;49.09
60417;BME280;46263;44.726;10.396;2024-03-25T01:20:21;99721.38;;;13.26;49.44
60417;BME280;46263;44.726;10.396;2024-03-25T01:22:47;99736.00;;;13.32;48.92
60417;BME280;46263;44.726;10.396;2024-03-25T01:25:12;99737.84;;;13.29;49.72
60417;BME280;46263;44.726;10.396;2024-03-25T01:27:38;99740.28;;;13.33;49.34
60417;BME280;46263;44.726;10.396;2024-03-25T01:30:04;99728.09;;;13.30;48.69
60417;BME280;46263;44.726;10.396;2024-03-25T01:32:29;99726.06;;;13.31;46.79
60417;BME280;46263;44.726;10.396;2024-03-25T01:34:55;99724.94;;;13.26;48.52
60417;BME280;46263;44.726;10.396;2024-03-25T01:37:21;99731.47;;;13.29;49.88
60417;BME280;46263;44.726;10.396;2024-03-25T01:39:46;99723.22;;;13.23;49.75
60417;BME280;46263;44.726;10.396;2024-03-25T01:42:13;99719.84;;;13.25;50.12
60417;BME280;46263;44.726;10.396;2024-03-25T01:44:39;99713.72;;;13.34;50.03
60417;BME280;46263;44.726;10.396;2024-03-25T01:47:04;99709.78;;;13.29;49.79
60417;BME280;46263;44.726;10.396;2024-03-25T01:49:30;99706.78;;;13.27;50.40
60417;BME280;46263;44.726;10.396;2024-03-25T01:51:55;99699.31;;;13.30;50.22
60417;BME280;46263;44.726;10.396;2024-03-25T01:54:22;99703.44;;;13.36;51.12
60417;BME280;46263;44.726;10.396;2024-03-25T01:56:48;99701.19;;;13.27;50.02
60417;BME280;46263;44.726;10.396;2024-03-25T01:59:15;99706.56;;;13.18;49.92
60417;BME280;46263;44.726;10.396;2024-03-25T02:01:43;99716.78;;;13.00;50.27
60417;BME280;46263;44.726;10.396;2024-03-25T02:04:09;99714.41;;;13.04;48.98
60417;BME280;46263;44.726;10.396;2024-03-25T02:06:38;99710.53;;;12.87;48.19
60417;BME280;46263;44.726;10.396;2024-03-25T02:09:05;99719.47;;;12.78;48.66
60417;BME280;46263;44.726;10.396;2024-03-25T02:11:32;99711.84;;;12.86;48.10
60417;BME280;46263;44.726;10.396;2024-03-25T02:13:57;99701.94;;;12.85;47.12
60417;BME280;46263;44.726;10.396;2024-03-25T02:16:23;99703.56;;;12.73;47.33
60417;BME280;46263;44.726;10.396;2024-03-25T02:18:50;99701.34;;;12.79;46.87
60417;BME280;46263;44.726;10.396;2024-03-25T02:21:16;99709.97;;;12.81;48.59
60417;BME280;46263;44.726;10.396;2024-03-25T02:23:42;99697.66;;;12.84;48.33
60417;BME280;46263;44.726;10.396;2024-03-25T02:26:10;99705.78;;;12.67;48.64
60417;BME280;46263;44.726;10.396;2024-03-25T02:28:35;99706.59;;;12.47;47.70
60417;BME280;46263;44.726;10.396;2024-03-25T02:31:01;99713.63;;;12.33;47.78
60417;BME280;46263;44.726;10.396;2024-03-25T02:33:26;99727.06;;;12.27;48.04
60417;BME280;46263;44.726;10.396;2024-03-25T02:35:51;99720.38;;;12.10;47.79
60417;BME280;46263;44.726;10.396;2024-03-25T02:38:17;99722.22;;;12.07;46.66
60417;BME280;46263;44.726;10.396;2024-03-25T02:40:44;99720.03;;;11.93;46.63
60417;BME280;46263;44.726;10.396;2024-03-25T02:43:10;99712.06;;;11.97;46.37
60417;BME280;46263;44.726;10.396;2024-03-25T02:45:36;99709.78;;;11.95;47.90
60417;BME280;46263;44.726;10.396;2024-03-25T02:48:01;99705.84;;;12.11;48.26
60417;BME280;46263;44.726;10.396;2024-03-25T02:50:26;99691.28;;;12.13;48.16
60417;BME280;46263;44.726;10.396;2024-03-25T02:52:52;99699.88;;;12.15;48.80
60417;BME280;46263;44.726;10.396;2024-03-25T02:55:18;99695.47;;;12.27;48.58
60417;BME280;46263;44.726;10.396;2024-03-25T02:57:43;99695.47;;;12.27;48.79
60417;BME280;46263;44.726;10.396;2024-03-25T03:00:09;99701.97;;;12.22;48.18
60417;BME280;46263;44.726;10.396;2024-03-25T03:02:35;99702.72;;;12.22;47.32
60417;BME280;46263;44.726;10.396;2024-03-25T03:05:00;99704.00;;;11.93;47.90
60417;BME280;46263;44.726;10.396;2024-03-25T03:07:27;99695.66;;;12.01;46.34
60417;BME280;46263;44.726;10.396;2024-03-25T03:09:53;99698.59;;;11.95;46.42
60417;BME280;46263;44.726;10.396;2024-03-25T03:12:18;99711.19;;;11.82;47.21
60417;BME280;46263;44.726;10.396;2024-03-25T03:14:44;99702.75;;;11.74;46.76
60417;BME280;46263;44.726;10.396;2024-03-25T03:17:09;99709.97;;;11.90;47.64
60417;BME280;46263;44.726;10.396;2024-03-25T03:19:35;99715.69;;;12.05;47.86
60417;BME280;46263;44.726;10.396;2024-03-25T03:22:00;99709.88;;;12.03;47.27
60417;BME280;46263;44.726;10.396;2024-03-25T03:24:26;99704.34;;;12.10;47.46
60417;BME280;46263;44.726;10.396;2024-03-25T03:26:51;99700.66;;;11.95;48.01
60417;BME280;46263;44.726;10.396;2024-03-25T03:29:16;99702.19;;;12.03;47.16
60417;BME280;46263;44.726;10.396;2024-03-25T03:31:44;99701.22;;;11.93;46.37
60417;BME280;46263;44.726;10.396;2024-03-25T03:34:09;99705.41;;;12.07;45.26
60417;BME280;46263;44.726;10.396;2024-03-25T03:36:35;99705.13;;;12.18;44.89
60417;BME280;46263;44.726;10.396;2024-03-25T03:39:00;99701.78;;;12.20;44.51
60417;BME280;46263;44.726;10.396;2024-03-25T03:41:26;99701.97;;;12.22;45.95
60417;BME280;46263;44.726;10.396;2024-03-25T03:43:51;99700.50;;;12.00;45.44
60417;BME280;46263;44.726;10.396;2024-03-25T03:46:16;99698.19;;;11.51;46.33
60417;BME280;46263;44.726;10.396;2024-03-25T03:48:42;99696.75;;;11.37;46.60
60417;BME280;46263;44.726;10.396;2024-03-25T03:51:08;99697.28;;;10.56;48.67
60417;BME280;46263;44.726;10.396;2024-03-25T03:53:34;99704.06;;;10.34;48.76
60417;BME280;46263;44.726;10.396;2024-03-25T03:56:04;99700.69;;;10.88;48.64
60417;BME280;46263;44.726;10.396;2024-03-25T03:58:33;99701.41;;;11.01;49.50
60417;BME280;46263;44.726;10.396;2024-03-25T04:00:59;99711.69;;;11.19;50.30
60417;BME280;46263;44.726;10.396;2024-03-25T04:03:25;99708.13;;;11.39;48.25
60417;BME280;46263;44.726;10.396;2024-03-25T04:05:51;99706.38;;;11.49;48.33
60417;BME280;46263;44.726;10.396;2024-03-25T04:08:16;99710.59;;;11.55;48.22
60417;BME280;46263;44.726;10.396;2024-03-25T04:10:44;99706.06;;;11.52;48.08
60417;BME280;46263;44.726;10.396;2024-03-25T04:13:10;99708.91;;;11.39;48.20
60417;BME280;46263;44.726;10.396;2024-03-25T04:15:37;99712.25;;;11.05;47.79
60417;BME280;46263;44.726;10.396;2024-03-25T04:18:03;99723.03;;;11.01;48.18
60417;BME280;46263;44.726;10.396;2024-03-25T04:20:30;99719.44;;;11.13;49.98
60417;BME280;46263;44.726;10.396;2024-03-25T04:23:01;99722.19;;;11.26;49.09
60417;BME280;46263;44.726;10.396;2024-03-25T04:25:26;99721.03;;;11.21;47.82
60417;BME280;46263;44.726;10.396;2024-03-25T04:27:51;99716.19;;;11.22;47.60
60417;BME280;46263;44.726;10.396;2024-03-25T04:30:17;99723.47;;;11.25;46.36
60417;BME280;46263;44.726;10.396;2024-03-25T04:32:42;99721.19;;;11.03;45.96
60417;BME280;46263;44.726;10.396;2024-03-25T04:35:08;99723.47;;;10.92;46.44
60417;BME280;46263;44.726;10.396;2024-03-25T04:37:34;99728.34;;;10.78;46.68
60417;BME280;46263;44.726;10.396;2024-03-25T04:40:01;99734.47;;;10.64;46.39
60417;BME280;46263;44.726;10.396;2024-03-25T04:42:26;99741.34;;;10.63;45.45
60417;BME280;46263;44.726;10.396;2024-03-25T04:44:52;99731.69;;;10.64;45.13
60417;BME280;46263;44.726;10.396;2024-03-25T04:47:18;99737.00;;;10.88;45.22
60417;BME280;46263;44.726;10.396;2024-03-25T04:49:44;99741.84;;;11.00;45.49
60417;BME280;46263;44.726;10.396;2024-03-25T04:52:13;99747.22;;;10.98;45.00
60417;BME280;46263;44.726;10.396;2024-03-25T04:54:42;99744.63;;;11.00;44.47
60417;BME280;46263;44.726;10.396;2024-03-25T04:57:08;99753.28;;;10.89;42.41
60417;BME280;46263;44.726;10.396;2024-03-25T04:59:33;99754.63;;;10.96;42.04
60417;BME280;46263;44.726;10.396;2024-03-25T05:01:59;99754.50;;;11.14;41.87
60417;BME280;46263;44.726;10.396;2024-03-25T05:04:24;99757.09;;;11.12;41.24
60417;BME280;46263;44.726;10.396;2024-03-25T05:06:50;99757.31;;;11.01;41.28
60417;BME280;46263;44.726;10.396;2024-03-25T05:09:15;99758.81;;;11.02;40.91
60417;BME280;46263;44.726;10.396;2024-03-25T05:11:42;99750.00;;;11.11;40.86
60417;BME280;46263;44.726;10.396;2024-03-25T05:14:07;99752.72;;;11.24;40.35
60417;BME280;46263;44.726;10.396;2024-03-25T05:16:33;99764.97;;;11.34;39.92
60417;BME280;46263;44.726;10.396;2024-03-25T05:18:59;99766.59;;;11.29;39.87
60417;BME280;46263;44.726;10.396;2024-03-25T05:21:24;99774.13;;;11.34;39.96
60417;BME280;46263;44.726;10.396;2024-03-25T05:23:50;99773.38;;;11.34;39.94
60417;BME280;46263;44.726;10.396;2024-03-25T05:26:15;99777.38;;;11.25;39.52
60417;BME280;46263;44.726;10.396;2024-03-25T05:28:40;99783.50;;;11.24;39.81
60417;BME280;46263;44.726;10.396;2024-03-25T05:31:09;99793.06;;;11.28;39.63
60417;BME280;46263;44.726;10.396;2024-03-25T05:33:35;99793.41;;;11.25;39.47
60417;BME280;46263;44.726;10.396;2024-03-25T05:36:01;99798.00;;;11.35;39.62
60417;BME280;46263;44.726;10.396;2024-03-25T05:38:28;99798.75;;;11.36;40.14
60417;BME280;46263;44.726;10.396;2024-03-25T05:40:53;99799.06;;;11.45;39.97
60417;BME280;46263;44.726;10.396;2024-03-25T05:43:19;99806.69;;;11.45;40.30
60417;BME280;46263;44.726;10.396;2024-03-25T05:45:52;99804.13;;;11.34;40.23
60417;BME280;46263;44.726;10.396;2024-03-25T05:48:19;99811.66;;;11.52;40.25
60417;BME280;46263;44.726;10.396;2024-03-25T05:50:45;99806.69;;;11.45;40.12
60417;BME280;46263;44.726;10.396;2024-03-25T05:53:10;99805.44;;;11.33;40.65
60417;BME280;46263;44.726;10.396;2024-03-25T05:55:36;99802.63;;;11.33;40.53
60417;BME280;46263;44.726;10.396;2024-03-25T05:58:01;99801.78;;;11.38;41.14
60417;BME280;46263;44.726;10.396;2024-03-25T06:00:28;99804.47;;;11.30;41.44
60417;BME280;46263;44.726;10.396;2024-03-25T06:02:54;99805.75;;;11.29;41.41
60417;BME280;46263;44.726;10.396;2024-03-25T06:05:20;99809.53;;;11.32;41.20
60417;BME280;46263;44.726;10.396;2024-03-25T06:07:45;99812.31;;;11.45;40.88
60417;BME280;46263;44.726;10.396;2024-03-25T06:10:11;99814.59;;;11.33;40.81
60417;BME280;46263;44.726;10.396;2024-03-25T06:12:36;99815.75;;;11.38;41.28
60417;BME280;46263;44.726;10.396;2024-03-25T06:15:02;99814.78;;;11.35;41.63
60417;BME280;46263;44.726;10.396;2024-03-25T06:17:28;99813.03;;;11.45;42.06
60417;BME280;46263;44.726;10.396;2024-03-25T06:19:53;99812.72;;;11.49;40.89
60417;BME280;46263;44.726;10.396;2024-03-25T06:22:18;99815.06;;;11.58;40.94
60417;BME280;46263;44.726;10.396;2024-03-25T06:24:44;99816.69;;;11.66;40.93
60417;BME280;46263;44.726;10.396;2024-03-25T06:27:10;99813.31;;;11.68;40.55
60417;BME280;46263;44.726;10.396;2024-03-25T06:29:35;99820.00;;;11.98;40.56
60417;BME280;46263;44.726;10.396;2024-03-25T06:32:01;99813.22;;;12.34;40.43
60417;BME280;46263;44.726;10.396;2024-03-25T06:34:45;99819.00;;;12.36;40.30
60417;BME280;46263;44.726;10.396;2024-03-25T06:37:11;99823.94;;;12.43;40.71
60417;BME280;46263;44.726;10.396;2024-03-25T06:39:36;99825.91;;;12.56;40.94
60417;BME280;46263;44.726;10.396;2024-03-25T06:42:02;99825.28;;;12.50;40.44
60417;BME280;46263;44.726;10.396;2024-03-25T06:44:27;99823.81;;;12.56;40.47
60417;BME280;46263;44.726;10.396;2024-03-25T06:46:53;99823.78;;;12.76;41.54
60417;BME280;46263;44.726;10.396;2024-03-25T06:49:18;99826.81;;;12.86;42.53
60417;BME280;46263;44.726;10.396;2024-03-25T06:51:44;99818.72;;;12.75;43.47
60417;BME280;46263;44.726;10.396;2024-03-25T06:54:09;99822.13;;;12.81;43.69
60417;BME280;46263;44.726;10.396;2024-03-25T06:56:35;99821.66;;;12.90;45.27
60417;BME280;46263;44.726;10.396;2024-03-25T06:59:00;99830.38;;;13.14;44.17
60417;BME280;46263;44.726;10.396;2024-03-25T07:01:25;99827.22;;;13.18;42.87
60417;BME280;46263;44.726;10.396;2024-03-25T07:03:51;99824.59;;;13.20;42.94
60417;BME280;46263;44.726;10.396;2024-03-25T07:06:18;99825.72;;;13.17;43.44
60417;BME280;46263;44.726;10.396;2024-03-25T07:08:43;99825.41;;;13.28;43.65
60417;BME280;46263;44.726;10.396;2024-03-25T07:11:09;99817.56;;;12.91;45.85
60417;BME280;46263;44.726;10.396;2024-03-25T07:13:34;99818.72;;;13.03;45.34
60417;BME280;46263;44.726;10.396;2024-03-25T07:16:01;99822.84;;;12.74;45.40
60417;BME280;46263;44.726;10.396;2024-03-25T07:18:27;99825.44;;;12.72;44.10
60417;BME280;46263;44.726;10.396;2024-03-25T07:20:53;99828.69;;;13.11;43.35
60417;BME280;46263;44.726;10.396;2024-03-25T07:23:18;99836.69;;;13.43;43.33
60417;BME280;46263;44.726;10.396;2024-03-25T07:25:44;99842.59;;;13.74;43.11
60417;BME280;46263;44.726;10.396;2024-03-25T07:28:09;99851.53;;;13.65;40.18
60417;BME280;46263;44.726;10.396;2024-03-25T07:30:35;99854.03;;;13.34;40.68
60417;BME280;46263;44.726;10.396;2024-03-25T07:33:00;99855.28;;;13.18;40.59
60417;BME280;46263;44.726;10.396;2024-03-25T07:35:26;99850.97;;;13.17;40.08
60417;BME280;46263;44.726;10.396;2024-03-25T07:37:52;99848.56;;;13.21;40.45
60417;BME280;46263;44.726;10.396;2024-03-25T07:40:18;99844.31;;;13.27;42.28
60417;BME280;46263;44.726;10.396;2024-03-25T07:42:43;99850.91;;;13.45;41.71
60417;BME280;46263;44.726;10.396;2024-03-25T07:45:09;99842.09;;;13.91;41.70
60417;BME280;46263;44.726;10.396;2024-03-25T07:47:34;99849.41;;;14.01;40.50
60417;BME280;46263;44.726;10.396;2024-03-25T07:50:00;99842.53;;;14.17;40.94
60417;BME280;46263;44.726;10.396;2024-03-25T07:52:26;99850.00;;;14.22;41.42
60417;BME280;46263;44.726;10.396;2024-03-25T07:54:52;99852.88;;;14.37;38.72
60417;BME280;46263;44.726;10.396;2024-03-25T07:57:18;99850.78;;;14.52;38.03
60417;BME280;46263;44.726;10.396;2024-03-25T07:59:45;99848.16;;;14.69;38.16
60417;BME280;46263;44.726;10.396;2024-03-25T08:02:10;99851.72;;;14.70;37.70
60417;BME280;46263;44.726;10.396;2024-03-25T08:04:36;99848.69;;;14.83;37.85
60417;BME280;46263;44.726;10.396;2024-03-25T08:07:01;99854.53;;;14.62;37.69
60417;BME280;46263;44.726;10.396;2024-03-25T08:09:28;99853.03;;;14.54;36.78
60417;BME280;46263;44.726;10.396;2024-03-25T08:11:53;99853.75;;;14.84;35.62
60417;BME280;46263;44.726;10.396;2024-03-25T08:14:19;99854.72;;;14.64;36.25
60417;BME280;46263;44.726;10.396;2024-03-25T08:16:44;99850.78;;;14.52;36.85
60417;BME280;46263;44.726;10.396;2024-03-25T08:19:10;99851.91;;;14.57;36.89
60417;BME280;46263;44.726;10.396;2024-03-25T08:21:35;99851.50;;;14.83;36.75
60417;BME280;46263;44.726;10.396;2024-03-25T08:24:01;99853.03;;;14.54;36.42
60417;BME280;46263;44.726;10.396;2024-03-25T08:26:26;99839.72;;;14.69;35.33
60417;BME280;46263;44.726;10.396;2024-03-25T08:28:52;99846.09;;;14.55;34.36
60417;BME280;46263;44.726;10.396;2024-03-25T08:31:17;99841.41;;;14.65;34.87
60417;BME280;46263;44.726;10.396;2024-03-25T08:33:43;99840.63;;;15.02;35.13
60417;BME280;46263;44.726;10.396;2024-03-25T08:36:09;99842.22;;;15.19;36.19
60417;BME280;46263;44.726;10.396;2024-03-25T08:38:34;99839.66;;;14.99;36.62
60417;BME280;46263;44.726;10.396;2024-03-25T08:41:00;99841.31;;;15.17;35.28
60417;BME280;46263;44.726;10.396;2024-03-25T08:43:26;99848.81;;;15.14;34.40
60417;BME280;46263;44.726;10.396;2024-03-25T08:45:51;99844.34;;;15.04;34.10
60417;BME280;46263;44.726;10.396;2024-03-25T08:48:17;99841.31;;;15.24;34.67
60417;BME280;46263;44.726;10.396;2024-03-25T08:50:42;99842.03;;;15.32;34.42
60417;BME280;46263;44.726;10.396;2024-03-25T08:53:08;99836.84;;;15.07;33.11
60417;BME280;46263;44.726;10.396;2024-03-25T08:55:33;99825.88;;;15.40;33.98
60417;BME280;46263;44.726;10.396;2024-03-25T08:57:59;99826.78;;;15.43;34.08
60417;BME280;46263;44.726;10.396;2024-03-25T09:00:25;99819.53;;;15.32;33.84
60417;BME280;46263;44.726;10.396;2024-03-25T09:02:51;99822.06;;;15.53;34.20
60417;BME280;46263;44.726;10.396;2024-03-25T09:05:16;99827.50;;;15.51;34.22
60417;BME280;46263;44.726;10.396;2024-03-25T09:07:44;99830.00;;;15.39;34.00
60417;BME280;46263;44.726;10.396;2024-03-25T09:10:10;99831.50;;;15.40;34.63
60417;BME280;46263;44.726;10.396;2024-03-25T09:13:11;99838.81;;;15.75;33.82
60417;BME280;46263;44.726;10.396;2024-03-25T09:15:37;99838.81;;;15.75;33.76
60417;BME280;46263;44.726;10.396;2024-03-25T09:18:02;99839.63;;;15.68;34.64
60417;BME280;46263;44.726;10.396;2024-03-25T09:20:28;99828.63;;;15.87;34.12
60417;BME280;46263;44.726;10.396;2024-03-25T09:22:53;99825.53;;;16.00;33.73
60417;BME280;46263;44.726;10.396;2024-03-25T09:25:19;99828.28;;;16.15;34.33
60417;BME280;46263;44.726;10.396;2024-03-25T09:27:48;99828.78;;;16.21;34.27
60417;BME280;46263;44.726;10.396;2024-03-25T09:30:14;99831.09;;;16.15;34.15
60417;BME280;46263;44.726;10.396;2024-03-25T09:32:40;99832.94;;;16.20;34.67
60417;BME280;46263;44.726;10.396;2024-03-25T09:35:06;99834.00;;;16.00;35.01
60417;BME280;46263;44.726;10.396;2024-03-25T09:37:32;99837.47;;;16.15;35.82
60417;BME280;46263;44.726;10.396;2024-03-25T09:39:58;99819.38;;;15.94;36.59
60417;BME280;46263;44.726;10.396;2024-03-25T09:42:28;99817.72;;;15.91;36.53
60417;BME280;46263;44.726;10.396;2024-03-25T09:44:57;99806.22;;;16.21;36.67
60417;BME280;46263;44.726;10.396;2024-03-25T09:47:23;99806.41;;;16.47;38.79
60417;BME280;46263;44.726;10.396;2024-03-25T09:49:49;99802.69;;;16.45;38.85
60417;BME280;46263;44.726;10.396;2024-03-25T09:52:15;99811.19;;;16.62;38.93
60417;BME280;46263;44.726;10.396;2024-03-25T09:54:41;99808.53;;;16.64;39.39
60417;BME280;46263;44.726;10.396;2024-03-25T09:57:08;99809.88;;;16.79;39.96
60417;BME280;46263;44.726;10.396;2024-03-25T09:59:34;99795.06;;;16.55;40.92
60417;BME280;46263;44.726;10.396;2024-03-25T10:02:01;99777.72;;;16.58;41.75
60417;BME280;46263;44.726;10.396;2024-03-25T10:04:26;99776.00;;;16.79;44.88
60417;BME280;46263;44.726;10.396;2024-03-25T10:06:52;99771.34;;;16.75;45.88
60417;BME280;46263;44.726;10.396;2024-03-25T10:09:19;99769.28;;;16.75;46.02
60417;BME280;46263;44.726;10.396;2024-03-25T10:11:47;99777.13;;;16.60;47.29
60417;BME280;46263;44.726;10.396;2024-03-25T10:14:15;99771.97;;;16.49;47.42
60417;BME280;46263;44.726;10.396;2024-03-25T10:16:41;99776.81;;;16.73;47.25
60417;BME280;46263;44.726;10.396;2024-03-25T10:19:06;99777.47;;;16.80;47.44
60417;BME280;46263;44.726;10.396;2024-03-25T10:21:33;99769.00;;;16.97;48.88
60417;BME280;46263;44.726;10.396;2024-03-25T10:23:58;99774.66;;;16.97;49.48
60417;BME280;46263;44.726;10.396;2024-03-25T10:26:26;99757.88;;;17.16;49.15
60417;BME280;46263;44.726;10.396;2024-03-25T10:29:01;99751.91;;;17.29;49.55
60417;BME280;46263;44.726;10.396;2024-03-25T10:31:28;99750.31;;;17.36;50.18
60417;BME280;46263;44.726;10.396;2024-03-25T10:33:53;99743.06;;;17.42;50.04
60417;BME280;46263;44.726;10.396;2024-03-25T10:36:20;99746.38;;;17.48;51.10
60417;BME280;46263;44.726;10.396;2024-03-25T10:38:48;99741.78;;;17.53;50.25
60417;BME280;46263;44.726;10.396;2024-03-25T10:41:17;99749.84;;;17.56;49.05
60417;BME280;46263;44.726;10.396;2024-03-25T10:43:45;99742.88;;;17.57;49.45
60417;BME280;46263;44.726;10.396;2024-03-25T10:46:14;99737.81;;;17.56;49.55
60417;BME280;46263;44.726;10.396;2024-03-25T10:48:43;99738.00;;;17.67;51.99
60417;BME280;46263;44.726;10.396;2024-03-25T10:51:13;99735.06;;;17.74;50.36
60417;BME280;46263;44.726;10.396;2024-03-25T10:53:41;99728.41;;;17.79;50.62
60417;BME280;46263;44.726;10.396;2024-03-25T10:56:07;99727.84;;;17.90;49.97
60417;BME280;46263;44.726;10.396;2024-03-25T10:58:33;99714.91;;;17.97;51.40
60417;BME280;46263;44.726;10.396;2024-03-25T11:01:00;99710.75;;;17.98;50.17
60417;BME280;46263;44.726;10.396;2024-03-25T11:03:26;99710.31;;;18.01;50.95
60417;BME280;46263;44.726;10.396;2024-03-25T11:05:53;99712.56;;;18.03;52.62
60417;BME280;46263;44.726;10.396;2024-03-25T11:08:19;99692.91;;;18.05;51.91
60417;BME280;46263;44.726;10.396;2024-03-25T11:10:46;99709.78;;;18.12;50.48
60417;BME280;46263;44.726;10.396;2024-03-25T11:13:13;99707.84;;;18.15;50.16
60417;BME280;46263;44.726;10.396;2024-03-25T11:15:47;99710.50;;;18.13;48.67
60417;BME280;46263;44.726;10.396;2024-03-25T11:18:17;99706.59;;;17.99;47.97
60417;BME280;46263;44.726;10.396;2024-03-25T11:20:44;99706.34;;;18.14;48.38
60417;BME280;46263;44.726;10.396;2024-03-25T11:23:10;99703.50;;;18.14;52.25
60417;BME280;46263;44.726;10.396;2024-03-25T11:25:37;99698.66;;;18.24;50.79
60417;BME280;46263;44.726;10.396;2024-03-25T11:28:03;99691.50;;;18.23;53.12
60417;BME280;46263;44.726;10.396;2024-03-25T11:30:29;99696.28;;;18.30;52.95
60417;BME280;46263;44.726;10.396;2024-03-25T11:32:57;99696.56;;;18.34;49.84
60417;BME280;46263;44.726;10.396;2024-03-25T11:35:22;99696.91;;;18.38;47.76
60417;BME280;46263;44.726;10.396;2024-03-25T11:37:48;99687.38;;;18.52;49.72
60417;BME280;46263;44.726;10.396;2024-03-25T11:40:15;99679.63;;;18.52;49.84
60417;BME280;46263;44.726;10.396;2024-03-25T11:42:41;99677.09;;;18.47;48.54
60417;BME280;46263;44.726;10.396;2024-03-25T11:45:17;99679.34;;;18.48;49.42
60417;BME280;46263;44.726;10.396;2024-03-25T11:47:47;99676.34;;;18.56;50.30
60417;BME280;46263;44.726;10.396;2024-03-25T11:50:18;99670.13;;;18.57;49.47
60417;BME280;46263;44.726;10.396;2024-03-25T11:52:44;99674.88;;;18.64;48.61
60417;BME280;46263;44.726;10.396;2024-03-25T11:55:10;99679.03;;;18.73;49.80
60417;BME280;46263;44.726;10.396;2024-03-25T11:57:37;99666.69;;;18.78;49.56
60417;BME280;46263;44.726;10.396;2024-03-25T12:00:04;99670.41;;;18.80;46.19
60417;BME280;46263;44.726;10.396;2024-03-25T12:02:36;99665.47;;;18.81;45.70
60417;BME280;46263;44.726;10.396;2024-03-25T12:05:03;99659.38;;;18.75;47.23
60417;BME280;46263;44.726;10.396;2024-03-25T12:07:30;99656.69;;;18.77;46.43
60417;BME280;46263;44.726;10.396;2024-03-25T12:09:57;99650.41;;;18.88;48.06
60417;BME280;46263;44.726;10.396;2024-03-25T12:12:41;99656.97;;;18.90;46.71
60417;BME280;46263;44.726;10.396;2024-03-25T12:15:09;99634.59;;;18.94;45.27
60417;BME280;46263;44.726;10.396;2024-03-25T12:17:34;99632.06;;;18.89;46.67
60417;BME280;46263;44.726;10.396;2024-03-25T12:20:07;99638.34;;;18.87;46.60
60417;BME280;46263;44.726;10.396;2024-03-25T12:22:33;99628.06;;;18.82;44.73
60417;BME280;46263;44.726;10.396;2024-03-25T12:25:01;99625.81;;;18.81;45.00
60417;BME280;46263;44.726;10.396;2024-03-25T12:27:27;99635.97;;;18.84;45.27
60417;BME280;46263;44.726;10.396;2024-03-25T12:30:00;99632.09;;;18.70;44.50
60417;BME280;46263;44.726;10.396;2024-03-25T12:32:39;99632.38;;;18.83;45.33
60417;BME280;46263;44.726;10.396;2024-03-25T12:35:12;99617.03;;;18.86;45.81
60417;BME280;46263;44.726;10.396;2024-03-25T12:37:39;99625.81;;;18.90;43.95
60417;BME280;46263;44.726;10.396;2024-03-25T12:40:06;99624.16;;;18.97;43.71
60417;BME280;46263;44.726;10.396;2024-03-25T12:42:33;99621.06;;;18.93;43.52
60417;BME280;46263;44.726;10.396;2024-03-25T12:44:59;99616.69;;;19.01;42.71